HETB/TCP METAR and TAF weather

Enter ICAO airport designator
Station Type Date Time Source
HETB METAR 2017/05/03 11:00 UTC NOAA

HETB 031100Z 01005KT 9999 FEW025 21/15 Q1015 NOSIG


Station Type Date Time Source
HETB Decoded METAR 2017/05/03 11:00 UTC NOAA

Taba, Egypt (HETB) 29-35-57N 034-46-36E
May 03, 2017 - 07:00 AM EDT / 2017.05.03 1100 UTC
Wind: from the N (010 degrees) at 6 MPH (5 KT):0
Visibility: greater than 7 mile(s):0
Sky conditions: mostly clear
Temperature: 69 F (21 C)
Dew Point: 59 F (15 C)
Relative Humidity: 68%
Pressure (altimeter): 29.97 in. Hg (1015 hPa)
ob: HETB 031100Z 01005KT 9999 FEW025 21/15 Q1015 NOSIG
cycle: 11

Station Type Date Time Source
HETB TAF 2018/01/22 18:03 UTC NOAA

TAF HETB 221700Z 2218/2324 21010KT CAVOK


Example: see airport list